Time;durP1;ratioP1;P1;durP2;ratioP2;P2;SDS_P1;SDS_P2;PMS_P1;PMS_P2;Temp;Humidity;BMP_temperature;BMP_pressure;BME280_temperature;BME280_humidity;BME280_pressure;Samples;Min_cycle;Max_cycle;Signal;HPM_P1;HPM_P2
2023/01/07 00:00:18;;;;;;;6.38;3.70;;;;;;;11.19;67.08;100403.44;1088211;46;20030;-79
2023/01/07 00:01:20;;;;;;;5.32;2.90;;;;;;;11.20;66.99;100399.78;1088760;54;20034;-78
2023/01/07 00:02:25;;;;;;;5.60;3.08;;;;;;;11.23;66.60;100407.53;1088949;54;20145;-78
2023/01/07 00:03:26;;;;;;;4.88;2.58;;;;;;;11.24;66.57;100403.88;1089109;54;20052;-78
2023/01/07 00:04:31;;;;;;;4.95;2.97;;;;;;;11.24;66.80;100402.03;1089114;54;20054;-78
2023/01/07 00:05:32;;;;;;;5.28;2.85;;;;;;;11.25;66.78;100397.53;1089035;38;20300;-78
2023/01/07 00:06:38;;;;;;;6.32;3.70;;;;;;;11.28;66.82;100402.59;1089314;46;20041;-78
2023/01/07 00:07:39;;;;;;;5.65;3.20;;;;;;;11.27;66.93;100403.59;1089182;46;20034;-79
2023/01/07 00:08:45;;;;;;;7.20;3.17;;;;;;;11.22;66.85;100404.00;1090226;46;20034;-78
2023/01/07 00:09:49;;;;;;;5.82;3.28;;;;;;;11.28;66.65;100397.25;1088836;54;20090;-79
2023/01/07 00:10:51;;;;;;;4.97;2.80;;;;;;;11.26;66.87;100393.84;1088982;54;20101;-78
2023/01/07 00:11:55;;;;;;;4.40;2.47;;;;;;;11.28;66.86;100391.91;1088763;54;20045;-77
2023/01/07 00:12:57;;;;;;;3.63;2.10;;;;;;;11.24;67.04;100390.50;1088700;54;20065;-78
2023/01/07 00:14:02;;;;;;;4.93;2.47;;;;;;;11.28;66.85;100402.59;1088778;54;20057;-79
2023/01/07 00:15:05;;;;;;;3.78;2.00;;;;;;;11.26;67.16;100393.03;1089718;46;20572;-77
2023/01/07 00:16:13;;;;;;;4.18;2.00;;;;;;;11.27;66.85;100392.88;1088430;54;20105;-79
2023/01/07 00:17:15;;;;;;;3.88;1.95;;;;;;;11.27;67.09;100387.53;1088645;54;20073;-79
2023/01/07 00:18:19;;;;;;;3.95;1.90;;;;;;;11.25;66.85;100392.16;1088788;54;20049;-76
2023/01/07 00:19:23;;;;;;;3.40;1.80;;;;;;;11.28;67.07;100391.06;1088907;54;20050;-77
2023/01/07 00:20:24;;;;;;;3.97;1.80;;;;;;;11.22;67.15;100392.47;1088813;54;20046;-78
2023/01/07 00:21:30;;;;;;;4.55;2.08;;;;;;;11.24;67.31;100390.50;1088908;54;20026;-77
2023/01/07 00:22:31;;;;;;;3.70;1.60;;;;;;;11.27;67.02;100382.16;1088530;54;20050;-78
2023/01/07 00:23:37;;;;;;;3.80;1.67;;;;;;;11.27;67.21;100384.84;1089288;54;20053;-77
2023/01/07 00:24:38;;;;;;;4.20;1.70;;;;;;;11.21;67.32;100382.75;1089272;54;20046;-78
2023/01/07 00:25:43;;;;;;;3.80;1.70;;;;;;;11.16;67.61;100380.50;1090153;46;20041;-78
2023/01/07 00:26:44;;;;;;;3.40;1.70;;;;;;;11.18;67.43;100383.00;1090207;46;20043;-78
2023/01/07 00:27:48;;;;;;;3.78;1.48;;;;;;;11.19;67.61;100387.38;1090661;46;20030;-79
2023/01/07 00:28:51;;;;;;;5.47;2.05;;;;;;;11.19;67.47;100382.88;1089395;54;20042;-80
2023/01/07 00:29:55;;;;;;;4.05;1.50;;;;;;;11.16;67.54;100371.59;1089827;38;20540;-80
2023/01/07 00:30:59;;;;;;;3.67;1.50;;;;;;;11.16;67.52;100368.94;1088967;54;20046;-80
2023/01/07 00:32:06;;;;;;;3.33;1.67;;;;;;;11.15;67.36;100364.56;1088933;54;20053;-80
2023/01/07 00:33:12;;;;;;;3.65;1.40;;;;;;;11.14;67.43;100357.53;1088727;54;20671;-78
2023/01/07 00:34:16;;;;;;;2.60;1.00;;;;;;;11.14;67.55;100357.53;1088931;54;20041;-79
2023/01/07 00:35:22;;;;;;;3.20;1.17;;;;;;;11.14;67.38;100361.03;1088944;54;20038;-80
2023/01/07 00:38:38;;;;;;;4.05;1.60;;;;;;;11.13;67.59;100362.03;1088834;54;20038;-79
2023/01/07 00:39:39;;;;;;;3.00;1.42;;;;;;;11.13;67.24;100361.19;1089648;46;20515;-79
2023/01/07 00:40:43;;;;;;;3.22;1.40;;;;;;;11.08;67.52;100362.44;1088641;54;20073;-80
2023/01/07 00:43:06;;;;;;;2.50;1.00;;;;;;;11.18;67.29;100365.16;1088695;54;20042;-78
2023/01/07 00:44:08;;;;;;;2.80;1.17;;;;;;;11.18;67.23;100364.28;1088745;54;20118;-80
2023/01/07 00:45:13;;;;;;;2.50;1.00;;;;;;;11.23;67.09;100359.38;1088794;54;20038;-77
2023/01/07 00:46:16;;;;;;;2.85;1.17;;;;;;;11.25;67.13;100360.06;1088758;54;20037;-77
2023/01/07 00:47:22;;;;;;;3.08;1.20;;;;;;;11.29;66.63;100363.31;1088766;54;20034;-78
2023/01/07 00:48:24;;;;;;;2.58;1.05;;;;;;;11.29;66.77;100352.59;1088520;54;20034;-77
2023/01/07 00:49:28;;;;;;;3.13;1.20;;;;;;;11.31;66.83;100356.81;1088592;54;20045;-76
2023/01/07 00:50:34;;;;;;;2.85;1.33;;;;;;;11.22;66.74;100357.69;1090470;46;20046;-78
2023/01/07 00:51:36;;;;;;;2.75;1.13;;;;;;;11.28;66.59;100348.25;1089630;54;20041;-78
2023/01/07 00:52:40;;;;;;;3.42;1.30;;;;;;;11.33;66.64;100352.19;1090202;46;20057;-79
2023/01/07 00:53:42;;;;;;;2.80;1.20;;;;;;;11.35;66.49;100352.03;1089521;54;20037;-79
2023/01/07 00:54:46;;;;;;;2.90;1.00;;;;;;;11.37;66.27;100348.22;1089568;54;20030;-78
2023/01/07 01:07:52;;;;;;;3.08;1.15;;;;;;;10.81;67.63;100335.53;1087666;54;20082;-79
2023/01/07 01:10:08;;;;;;;3.00;1.20;;;;;;;10.96;66.93;100330.63;1087302;54;20027;-79
2023/01/07 01:14:22;;;;;;;;;;;;;;;;;;;;;
2023/01/07 01:19:33;;;;;;;2.55;1.05;;;;;;;11.19;66.14;100318.63;1087440;54;20086;-79
2023/01/07 01:34:03;;;;;;;;;;;;;;;;;;;;;
2023/01/07 01:38:29;;;;;;;2.79;0.99;;;;;;;11.33;65.07;100317.38;2177100;54;20341;-78
2023/01/07 03:20:18;;;;;;;2.10;0.80;;;;;;;11.03;64.82;100227.41;1086446;54;20038;-80
2023/01/07 03:21:46;;;;;;;2.33;0.98;;;;;;;10.89;65.07;100226.03;1086677;54;20033;-79
2023/01/07 03:40:18;;;;;;;2.85;1.15;;;;;;;10.55;66.12;100213.94;1087050;54;20025;-79
2023/01/07 03:55:28;;;;;;;4.38;1.15;;;;;;;10.43;65.74;100210.56;1087578;54;20030;-78
2023/01/07 03:58:34;;;;;;;;;;;;;;;10.40;66.17;100205.50;1087792;54;20035;-78
2023/01/07 04:02:17;;;;;;;3.10;1.17;;;;;;;10.72;65.04;100206.22;1087427;54;20094;-78
2023/01/07 04:04:07;;;;;;;3.25;1.20;;;;;;;10.81;65.00;100201.84;1087604;54;20030;-78
2023/01/07 04:23:08;;;;;;;4.38;2.10;;;;;;;10.81;64.79;100185.78;1087516;54;20042;-79
2023/01/07 04:31:53;;;;;;;4.18;2.05;;;;;;;11.06;64.36;100174.47;1087484;39;21020;-79
2023/01/07 08:50:29;;;;;;;5.43;2.28;;;;;;;10.35;63.55;99991.28;1088007;54;20025;-82
2023/01/07 08:51:34;;;;;;;4.80;2.00;;;;;;;10.42;63.60;99994.25;1088026;54;20096;-83
2023/01/07 08:52:44;;;;;;;4.53;1.90;;;;;;;10.56;63.34;100000.97;1088132;54;20035;-82
2023/01/07 08:54:04;;;;;;;3.53;1.70;;;;;;;10.58;63.03;99988.28;1088024;54;20093;-83
2023/01/07 08:55:07;;;;;;;3.92;1.88;;;;;;;10.60;63.23;99991.63;1088341;46;20033;-82
2023/01/07 08:57:57;;;;;;;5.18;2.10;;;;;;;10.59;63.05;99989.94;1087522;54;20002;-79
2023/01/07 08:59:07;;;;;;;4.13;2.15;;;;;;;10.62;62.89;99989.66;1087954;46;20130;-79
2023/01/07 09:00:10;;;;;;;3.92;1.90;;;;;;;10.54;63.28;99986.88;1087604;54;20030;-80
2023/01/07 09:01:15;;;;;;;4.97;2.38;;;;;;;10.53;63.18;99998.56;1087622;54;20065;-77
2023/01/07 09:02:18;;;;;;;3.80;1.90;;;;;;;10.60;63.03;99987.16;1087483;54;20034;-78
2023/01/07 09:03:22;;;;;;;4.53;2.10;;;;;;;10.45;63.23;99978.75;1087567;54;20080;-78
2023/01/07 09:04:24;;;;;;;3.88;1.98;;;;;;;10.57;63.05;99986.59;1087229;54;20046;-78
2023/01/07 09:05:28;;;;;;;4.25;2.00;;;;;;;10.64;63.05;99978.81;1087743;47;20074;-79
2023/01/07 09:06:33;;;;;;;5.70;2.13;;;;;;;10.42;63.32;99988.91;1087674;54;20038;-78
2023/01/07 09:07:35;;;;;;;3.60;1.98;;;;;;;10.57;63.21;99987.44;1087846;54;20018;-78
2023/01/07 09:08:42;;;;;;;3.65;2.00;;;;;;;10.65;62.79;99986.72;1087926;54;20039;-79
2023/01/07 09:09:46;;;;;;;4.32;2.15;;;;;;;10.58;62.76;99982.94;1087861;47;20034;-79
2023/01/07 09:10:47;;;;;;;4.68;2.38;;;;;;;10.65;62.95;99989.38;1087859;54;20015;-80
2023/01/07 09:11:55;;;;;;;3.47;1.60;;;;;;;10.70;62.74;99987.09;1087799;54;20034;-80
2023/01/07 09:12:56;;;;;;;3.33;1.70;;;;;;;10.74;62.52;99990.31;1087923;54;20722;-79
2023/01/07 09:14:05;;;;;;;3.60;1.80;;;;;;;10.65;62.51;99985.84;1087859;54;20034;-79
2023/01/07 09:15:32;;;;;;;6.38;2.22;;;;;;;10.67;62.71;99978.53;1087811;54;20030;-79
2023/01/07 09:16:36;;;;;;;4.72;2.67;;;;;;;10.56;62.72;99979.56;1087738;54;20042;-80
2023/01/07 09:17:38;;;;;;;4.20;2.70;;;;;;;10.62;62.54;99978.97;1087912;54;20694;-79
2023/01/07 09:18:43;;;;;;;4.45;2.08;;;;;;;10.67;62.32;99982.06;1087710;54;20051;-79
2023/01/07 09:19:44;;;;;;;4.07;2.30;;;;;;;10.69;62.30;99977.38;1087867;54;20042;-80
2023/01/07 09:20:48;;;;;;;3.67;1.90;;;;;;;10.74;62.24;99977.81;1088127;46;20026;-78
2023/01/07 09:21:55;;;;;;;4.03;1.90;;;;;;;10.76;61.99;99975.84;1087807;46;20054;-79
2023/01/07 09:22:57;;;;;;;5.28;1.88;;;;;;;10.74;62.27;99977.81;1088035;46;20036;-78
2023/01/07 09:24:01;;;;;;;8.65;2.42;;;;;;;10.71;62.09;99970.06;1087874;54;20117;-78
2023/01/07 09:25:03;;;;;;;3.55;1.88;;;;;;;10.59;62.19;99974.78;1087987;54;20054;-78
2023/01/07 09:26:08;;;;;;;4.03;2.05;;;;;;;10.69;62.21;99977.38;1087903;54;20038;-79
2023/01/07 09:27:11;;;;;;;3.65;1.60;;;;;;;10.76;61.89;99980.31;1087954;54;20098;-78
2023/01/07 09:28:15;;;;;;;4.28;2.05;;;;;;;10.40;62.67;99980.19;1087857;54;20053;-78
2023/01/07 10:06:09;;;;;;;3.08;1.40;;;;;;;10.24;61.83;99954.91;1087233;54;20026;-78
2023/01/07 10:07:22;;;;;;;3.28;1.50;;;;;;;10.20;61.86;99963.34;1087789;54;20034;-79
2023/01/07 10:08:34;;;;;;;3.75;1.70;;;;;;;10.22;61.85;99961.34;1087867;54;20031;-78
2023/01/07 10:09:52;;;;;;;2.92;1.30;;;;;;;10.27;62.01;99953.75;1089335;47;20030;-79
2023/01/07 10:11:06;;;;;;;2.83;1.25;;;;;;;10.11;61.78;99957.84;1087824;54;20035;-79
2023/01/07 10:12:21;;;;;;;3.22;1.55;;;;;;;10.15;62.02;99953.09;1087837;54;20034;-79
2023/01/07 10:13:46;;;;;;;3.22;1.40;;;;;;;10.33;61.65;99958.50;1087836;54;20054;-78
2023/01/07 10:15:10;;;;;;;2.72;1.30;;;;;;;10.31;61.51;99952.47;1087768;54;20370;-79
2023/01/07 10:16:19;;;;;;;2.88;1.40;;;;;;;10.47;61.48;99959.06;1087857;54;20061;-80
2023/01/07 10:17:31;;;;;;;2.70;1.30;;;;;;;10.29;61.74;99946.44;1088160;54;20054;-80
2023/01/07 10:18:46;;;;;;;3.63;1.50;;;;;;;10.51;61.42;99949.75;1088104;54;20035;-79
2023/01/07 10:20:01;;;;;;;3.20;1.42;;;;;;;10.49;61.21;99941.91;1088145;54;20022;-80
2023/01/07 10:21:18;;;;;;;3.80;1.60;;;;;;;10.37;61.64;99943.03;1088151;54;20051;-79
2023/01/07 10:22:24;;;;;;;3.10;1.20;;;;;;;10.32;61.37;99940.78;1088318;54;20034;-81
2023/01/07 10:23:32;;;;;;;3.30;1.50;;;;;;;10.39;61.47;99944.59;1088340;47;20021;-80
2023/01/07 10:24:42;;;;;;;3.20;1.42;;;;;;;10.38;61.58;99937.59;1088165;47;20046;-80
2023/01/07 10:25:48;;;;;;;;;;;;;;;10.41;61.12;99936.44;1088333;54;20041;-80
2023/01/07 10:26:56;;;;;;;2.95;1.20;;;;;;;10.58;60.96;99932.16;1088147;54;19943;-79
2023/01/07 10:28:07;;;;;;;3.10;1.20;;;;;;;10.66;60.66;99932.25;1088200;54;20037;-79
2023/01/07 10:29:17;;;;;;;3.42;1.45;;;;;;;10.61;60.57;99921.16;1091639;39;20255;-79
2023/01/07 10:30:26;;;;;;;3.20;1.48;;;;;;;10.50;61.25;99921.34;1088159;54;20034;-79
2023/01/07 10:31:28;;;;;;;3.70;1.58;;;;;;;10.30;61.46;99914.22;1088178;54;20034;-78
2023/01/07 10:32:35;;;;;;;3.40;1.40;;;;;;;10.44;61.01;99920.94;1088128;54;20030;-79
2023/01/07 10:33:42;;;;;;;4.53;1.83;;;;;;;10.42;61.22;99914.91;1088213;54;20034;-80
2023/01/07 10:34:49;;;;;;;3.03;1.23;;;;;;;10.50;60.84;99913.31;1088102;46;20031;-80
2023/01/07 10:37:03;;;;;;;3.33;1.65;;;;;;;10.37;61.15;99916.31;1087702;54;20022;-82
2023/01/07 10:38:08;;;;;;;3.42;1.40;;;;;;;10.38;61.19;99913.53;1088031;54;20030;-80
2023/01/07 10:39:39;;;;;;;3.90;1.90;;;;;;;10.45;60.70;99908.41;1088017;54;20107;-82
2023/01/07 10:41:08;;;;;;;3.85;2.10;;;;;;;10.31;61.22;99915.06;1087609;46;20046;-78
2023/01/07 10:42:29;;;;;;;4.47;1.73;;;;;;;10.27;61.25;99908.34;1094261;39;21133;-84
2023/01/07 10:44:33;;;;;;;3.42;1.70;;;;;;;10.51;60.69;99907.84;1087890;54;20419;-79
2023/01/07 10:45:55;;;;;;;3.50;1.75;;;;;;;10.31;61.05;99909.72;1087747;54;20034;-80
2023/01/07 10:47:08;;;;;;;3.88;2.10;;;;;;;10.51;61.09;99902.50;1087849;54;20026;-81
2023/01/07 10:48:46;;;;;;;3.08;1.65;;;;;;;10.54;60.60;99904.84;1088037;54;20046;-78
2023/01/07 10:50:07;;;;;;;3.50;1.60;;;;;;;10.66;60.51;99902.84;1087946;54;20041;-79
2023/01/07 10:51:52;;;;;;;4.45;2.35;;;;;;;10.39;61.26;99904.50;1088841;39;20673;-78
2023/01/07 10:53:06;;;;;;;3.28;1.70;;;;;;;10.35;61.00;99903.09;1087716;54;20050;-79
2023/01/07 10:54:17;;;;;;;4.13;1.83;;;;;;;10.40;60.87;99900.84;1087826;54;20057;-79
2023/01/07 10:55:43;;;;;;;3.92;2.00;;;;;;;10.53;60.33;99897.81;1087710;54;20038;-83
2023/01/07 10:56:48;;;;;;;4.78;2.08;;;;;;;10.45;60.76;99895.91;1088032;54;20049;-82
2023/01/07 10:57:52;;;;;;;3.47;1.77;;;;;;;10.49;61.02;99892.94;1087201;54;20057;-78
2023/01/07 10:58:54;;;;;;;3.10;1.60;;;;;;;10.71;60.56;99891.72;1087568;54;20042;-81
2023/01/07 11:00:01;;;;;;;3.80;1.92;;;;;;;10.67;60.55;99891.16;1087535;54;20041;-78
2023/01/07 11:01:07;;;;;;;5.38;1.73;;;;;;;10.56;60.87;99888.69;1089231;46;20655;-78
2023/01/07 11:02:15;;;;;;;3.45;1.95;;;;;;;10.57;60.94;99887.69;1087571;54;20031;-81
2023/01/07 11:03:24;;;;;;;3.40;1.80;;;;;;;10.58;60.86;99881.38;1093521;31;20587;-81
2023/01/07 11:04:25;;;;;;;3.78;1.77;;;;;;;10.53;61.18;99886.31;1087904;46;20082;-82
2023/01/07 11:05:37;;;;;;;3.67;1.88;;;;;;;10.52;60.60;99876.59;1087533;54;20029;-81
2023/01/07 11:06:49;;;;;;;5.65;2.40;;;;;;;10.50;60.76;99874.09;1087126;54;20065;-81
2023/01/07 11:07:58;;;;;;;3.72;2.00;;;;;;;10.63;60.61;99875.56;1087320;54;20015;-82
2023/01/07 11:09:08;;;;;;;4.22;2.25;;;;;;;10.61;60.49;99873.88;1087720;54;20043;-81
2023/01/07 11:10:15;;;;;;;4.53;2.38;;;;;;;10.80;60.10;99873.91;1087549;54;20038;-80
2023/01/07 11:11:23;;;;;;;3.65;1.80;;;;;;;10.97;59.82;99865.06;1087455;54;20094;-82
2023/01/07 11:12:31;;;;;;;5.22;2.30;;;;;;;10.87;59.89;99870.50;1087647;54;20042;-82
2023/01/07 11:13:39;;;;;;;3.63;1.90;;;;;;;11.12;59.68;99862.69;1089218;46;20046;-82
2023/01/07 11:14:45;;;;;;;4.22;2.15;;;;;;;11.28;59.18;99858.50;1087944;54;20034;-80
2023/01/07 11:15:55;;;;;;;3.95;1.95;;;;;;;11.18;59.16;99855.91;1087957;54;20034;-80
2023/01/07 11:17:09;;;;;;;3.63;2.00;;;;;;;11.35;58.61;99849.69;1090028;39;20548;-80
2023/01/07 11:18:20;;;;;;;6.13;2.38;;;;;;;11.44;58.63;99849.75;1087907;54;20039;-81
2023/01/07 11:19:43;;;;;;;4.13;2.40;;;;;;;11.32;58.55;99852.69;1091182;39;20772;-79
2023/01/07 11:20:47;;;;;;;4.95;2.78;;;;;;;10.99;59.20;99848.88;1087975;54;20070;-79
2023/01/07 11:21:51;;;;;;;4.20;2.70;;;;;;;11.24;59.02;99844.59;1092257;39;20318;-79
2023/01/07 11:22:52;;;;;;;4.45;2.55;;;;;;;11.34;58.75;99834.63;1088030;54;20271;-79
2023/01/07 11:23:57;;;;;;;4.80;2.85;;;;;;;11.43;58.42;99838.22;1088018;54;20037;-80
2023/01/07 11:25:23;;;;;;;4.15;2.42;;;;;;;11.44;58.18;99836.38;1088008;54;20018;-81
2023/01/07 11:26:28;;;;;;;4.57;2.35;;;;;;;11.42;58.25;99836.53;1087734;54;20048;-78
2023/01/07 11:27:35;;;;;;;5.72;3.33;;;;;;;11.33;57.90;99840.13;1087776;54;20057;-81
2023/01/07 11:28:44;;;;;;;6.32;3.17;;;;;;;11.40;57.83;99827.81;1088099;54;20030;-80
2023/01/07 11:29:59;;;;;;;4.82;3.08;;;;;;;11.15;58.18;99827.63;1087989;54;20019;-81
2023/01/07 11:31:01;;;;;;;6.20;3.08;;;;;;;11.10;58.41;99832.56;1088061;54;20056;-79
2023/01/07 11:32:07;;;;;;;4.68;3.03;;;;;;;11.07;58.04;99827.56;1087992;54;20030;-81
2023/01/07 11:33:23;;;;;;;5.32;3.20;;;;;;;11.16;58.26;99825.78;1087960;54;20053;-82
2023/01/07 11:34:33;;;;;;;4.75;2.88;;;;;;;11.32;58.08;99820.59;1087981;54;20035;-81
2023/01/07 11:35:36;;;;;;;5.25;3.35;;;;;;;11.38;57.92;99825.31;1088524;39;20715;-81
2023/01/07 11:45:37;;;;;;;4.93;2.95;;;;;;;11.19;58.11;99801.41;1091369;39;20697;-80
2023/01/07 11:46:43;;;;;;;4.50;2.95;;;;;;;11.19;58.10;99798.72;1087608;54;20066;-80
2023/01/07 11:47:50;;;;;;;5.82;3.20;;;;;;;11.22;57.99;99801.94;1087225;54;20140;-80
2023/01/07 11:48:57;;;;;;;4.80;3.10;;;;;;;11.14;58.30;99803.72;1087450;54;20066;-81
2023/01/07 11:49:58;;;;;;;4.88;2.85;;;;;;;11.35;57.77;99789.97;1087549;54;20694;-81
2023/01/07 11:51:06;;;;;;;4.60;2.47;;;;;;;11.55;57.23;99788.78;1087429;54;20122;-81
2023/01/07 11:52:17;;;;;;;4.20;2.67;;;;;;;11.70;57.01;99790.88;1087314;54;20152;-82
2023/01/07 11:53:35;;;;;;;4.20;2.40;;;;;;;11.83;56.83;99782.41;1087659;54;20042;-80
2023/01/07 11:54:37;;;;;;;4.20;2.30;;;;;;;11.92;56.69;99783.31;1087584;54;20046;-80
2023/01/07 11:55:41;;;;;;;4.05;2.00;;;;;;;11.78;56.59;99774.84;1088213;46;20038;-80
2023/01/07 12:02:30;;;;;;;4.13;2.28;;;;;;;11.62;55.38;99762.22;1088108;46;20054;-83
2023/01/07 12:03:32;;;;;;;4.72;2.90;;;;;;;11.53;56.13;99753.31;1087826;54;20564;-80
2023/01/07 12:05:28;;;;;;;;;;;;;;;;;;;;;
2023/01/07 12:25:04;;;;;;;4.40;2.15;;;;;;;11.91;55.20;99699.41;1087811;54;20015;-80
2023/01/07 12:29:14;;;;;;;3.63;1.65;;;;;;;12.14;55.04;99698.84;1087972;54;20026;-79
2023/01/07 12:30:58;;;;;;;3.58;1.80;;;;;;;12.24;54.91;99693.34;1087888;54;20034;-79
2023/01/07 12:32:12;;;;;;;3.72;1.98;;;;;;;12.24;55.06;99694.19;1088057;39;20748;-80
2023/01/07 12:33:44;;;;;;;3.65;1.90;;;;;;;12.28;54.63;99686.66;1088003;54;20036;-80
2023/01/07 12:34:55;;;;;;;3.75;1.60;;;;;;;12.39;54.66;99686.34;1087941;54;20065;-82
2023/01/07 12:36:19;;;;;;;3.72;1.83;;;;;;;12.22;54.74;99688.16;1087921;54;20033;-82
2023/01/07 12:37:36;;;;;;;4.05;2.08;;;;;;;12.36;54.91;99683.16;1087940;54;20059;-81
2023/01/07 12:38:48;;;;;;;3.70;1.88;;;;;;;12.44;54.49;99680.50;1087855;54;20045;-82
2023/01/07 12:42:08;;;;;;;;;;;;;;;12.25;54.54;99669.06;1088254;46;20049;-79
2023/01/07 12:43:40;;;;;;;4.00;1.92;;;;;;;12.55;54.28;99669.44;1087626;54;19950;-79
2023/01/07 12:44:49;;;;;;;3.70;1.70;;;;;;;12.61;54.14;99667.94;1087690;54;20053;-80
2023/01/07 13:05:37;;;;;;;3.95;2.05;;;;;;;12.58;53.31;99628.03;1087126;54;20031;-80
2023/01/07 13:08:22;;;;;;;;;;;;;;;;;;;;;
2023/01/07 13:10:17;;;;;;;;;;;;;;;;;;;;;
2023/01/07 13:13:35;;;;;;;4.90;2.50;;;;;;;12.75;53.06;99624.34;1087560;54;20066;-79
2023/01/07 13:22:48;;;;;;;4.82;2.50;;;;;;;12.71;53.65;99604.22;1088912;46;20088;-79
2023/01/07 13:24:35;;;;;;;4.03;2.10;;;;;;;12.67;53.36;99594.00;1087418;54;20030;-78
2023/01/07 13:26:02;;;;;;;4.85;2.60;;;;;;;12.72;53.58;99594.34;1087511;54;20111;-80
2023/01/07 13:27:26;;;;;;;4.55;2.55;;;;;;;12.70;53.61;99599.88;1088173;46;20046;-80
2023/01/07 13:29:05;;;;;;;4.22;2.53;;;;;;;12.66;53.41;99597.72;1087547;54;20045;-79
2023/01/07 13:32:44;;;;;;;4.80;2.40;;;;;;;12.73;53.34;99591.47;1087389;54;20050;-80
2023/01/07 13:34:11;;;;;;;5.03;2.58;;;;;;;12.66;53.87;99584.31;1089976;46;20042;-79
2023/01/07 13:38:06;;;;;;;6.07;2.60;;;;;;;12.60;53.92;99593.88;1087342;54;20110;-80
2023/01/07 13:40:15;;;;;;;4.85;2.78;;;;;;;12.55;53.89;99586.31;1087273;54;20040;-78
2023/01/07 13:42:12;;;;;;;;;;;;;;;;;;;;;
2023/01/07 13:43:52;;;;;;;5.30;3.10;;;;;;;12.37;54.52;99588.34;1087159;54;20678;-81
2023/01/07 13:45:44;;;;;;;4.80;2.85;;;;;;;12.50;54.24;99582.47;1087923;47;20050;-79
2023/01/07 13:51:08;;;;;;;4.68;2.42;;;;;;;12.72;53.89;99576.41;1087422;54;20018;-79
2023/01/07 13:52:54;;;;;;;4.90;2.78;;;;;;;12.68;54.07;99574.22;1087600;54;20042;-79
2023/01/07 13:54:37;;;;;;;5.63;2.80;;;;;;;12.66;53.70;99570.91;1087472;54;20041;-81
2023/01/07 13:56:29;;;;;;;4.30;2.47;;;;;;;12.76;53.89;99577.75;1088290;47;20035;-81
2023/01/07 13:57:47;;;;;;;4.88;2.83;;;;;;;12.76;53.59;99574.22;1087750;54;20041;-80
2023/01/07 13:58:59;;;;;;;4.95;3.00;;;;;;;12.67;53.88;99578.75;1087766;54;20044;-79
2023/01/07 14:04:27;;;;;;;5.18;3.22;;;;;;;12.67;53.50;99578.75;1087472;54;20026;-83
2023/01/07 14:08:10;;;;;;;5.38;2.60;;;;;;;12.72;53.80;99580.94;1089823;47;20031;-83
2023/01/07 14:09:39;;;;;;;4.10;2.13;;;;;;;12.73;53.54;99587.97;1089254;47;20071;-85
2023/01/07 14:15:21;;;;;;;;;;;;;;;;;;;;;
2023/01/07 14:16:31;;;;;;;4.95;2.70;;;;;;;12.48;53.80;99586.16;1087188;54;20072;-79
2023/01/07 14:21:41;;;;;;;4.97;2.90;;;;;;;12.49;53.93;99576.25;1087090;54;20050;-80
2023/01/07 14:23:13;;;;;;;5.63;2.70;;;;;;;12.50;53.87;99585.16;1087377;47;20672;-80
2023/01/07 14:24:48;;;;;;;5.32;2.78;;;;;;;12.55;53.87;99591.69;1087350;54;20481;-79
2023/01/07 14:26:07;;;;;;;4.97;2.90;;;;;;;12.56;53.68;99581.78;1087372;54;20057;-79
2023/01/07 14:27:34;;;;;;;5.45;2.80;;;;;;;12.62;53.70;99581.94;1087409;54;20034;-80
2023/01/07 14:29:06;;;;;;;5.70;3.20;;;;;;;12.62;53.55;99581.94;1090082;47;20039;-79
2023/01/07 14:30:24;;;;;;;5.72;2.70;;;;;;;12.57;54.05;99586.16;1087233;54;20046;-81
2023/01/07 14:31:28;;;;;;;5.25;2.80;;;;;;;12.59;53.94;99586.81;1088798;47;20054;-80
2023/01/07 14:32:35;;;;;;;5.88;3.10;;;;;;;12.58;53.88;99580.59;1087037;54;20044;-80
2023/01/07 14:33:39;;;;;;;5.72;3.22;;;;;;;12.56;53.97;99582.66;1088273;47;20076;-80
2023/01/07 14:34:43;;;;;;;4.55;2.80;;;;;;;12.51;54.02;99590.34;1087167;54;20079;-79
2023/01/07 14:35:56;;;;;;;5.85;3.47;;;;;;;12.40;54.39;99582.63;1087332;54;20049;-79
2023/01/07 14:37:16;;;;;;;4.93;2.97;;;;;;;12.35;54.29;99593.03;1087391;47;20057;-80
2023/01/07 14:38:57;;;;;;;5.30;3.05;;;;;;;12.41;54.19;99584.31;1087294;54;20034;-85
2023/01/07 14:40:47;;;;;;;4.57;2.90;;;;;;;12.38;54.21;99587.31;1088424;47;20090;-83
2023/01/07 14:42:25;;;;;;;6.47;3.95;;;;;;;12.32;54.60;99588.84;1087455;54;20026;-80
2023/01/07 14:51:02;;;;;;;5.00;2.72;;;;;;;12.32;54.33;99573.59;1086453;54;20030;-79
2023/01/07 14:54:56;;;;;;;4.35;2.20;;;;;;;12.18;54.63;99582.31;1086435;54;20042;-80
2023/01/07 14:58:01;;;;;;;3.97;2.03;;;;;;;12.30;54.66;99578.28;1086403;39;20611;-80
2023/01/07 15:05:33;;;;;;;4.45;2.28;;;;;;;12.17;54.72;99572.59;1086945;54;20034;-79
2023/01/07 15:07:06;;;;;;;3.85;1.90;;;;;;;12.19;54.88;99567.88;1087132;54;20042;-79
2023/01/07 15:16:45;;;;;;;3.72;2.13;;;;;;;12.16;54.90;99562.88;1086891;54;20042;-81
2023/01/07 15:17:49;;;;;;;3.78;2.15;;;;;;;12.22;54.82;99567.56;1086718;54;20099;-78
2023/01/07 15:18:53;;;;;;;4.03;2.08;;;;;;;12.21;54.87;99571.25;1086855;54;20054;-78
2023/01/07 15:19:58;;;;;;;5.53;2.53;;;;;;;12.20;55.07;99560.69;1086333;54;20034;-79
2023/01/07 15:21:14;;;;;;;5.90;2.70;;;;;;;11.99;55.44;99573.59;1086236;54;20050;-81
2023/01/07 15:22:39;;;;;;;4.22;2.42;;;;;;;12.11;54.70;99567.88;1087198;54;20045;-79
2023/01/07 15:23:50;;;;;;;4.30;2.33;;;;;;;12.07;55.05;99561.19;1087813;54;20038;-80
2023/01/07 15:25:01;;;;;;;4.63;2.28;;;;;;;12.15;54.85;99558.53;1088658;46;20032;-79
2023/01/07 15:26:09;;;;;;;;;;;;;;;12.06;55.25;99560.34;1090872;46;20038;-79
2023/01/07 15:27:20;;;;;;;4.63;2.33;;;;;;;12.13;55.25;99558.69;1087773;39;20138;-78
2023/01/07 15:28:39;;;;;;;4.78;2.13;;;;;;;12.14;54.95;99563.03;1086547;54;20039;-82
2023/01/07 15:29:51;;;;;;;4.20;2.55;;;;;;;12.16;54.88;99550.31;1087874;46;20042;-79
2023/01/07 15:44:20;;;;;;;5.78;3.22;;;;;;;11.82;55.86;99537.88;1087677;39;20133;-82
2023/01/07 15:45:27;;;;;;;5.32;3.15;;;;;;;11.85;55.55;99531.34;1087643;54;20100;-81
2023/01/07 15:46:34;;;;;;;5.95;2.92;;;;;;;11.84;55.93;99530.50;1087725;54;20064;-83
2023/01/07 15:47:43;;;;;;;6.00;3.88;;;;;;;11.82;56.05;99540.53;1087619;54;20042;-80
2023/01/07 15:48:46;;;;;;;5.82;3.30;;;;;;;11.87;55.98;99534.69;1087722;54;20035;-83
2023/01/07 15:49:50;;;;;;;6.40;3.25;;;;;;;11.90;55.99;99533.53;1087718;54;20022;-81
2023/01/07 15:51:14;;;;;;;6.18;3.13;;;;;;;11.90;55.62;99531.69;1090272;46;20030;-83
2023/01/07 15:52:28;;;;;;;5.47;3.00;;;;;;;11.85;55.98;99528.66;1087690;54;20026;-80
2023/01/07 15:53:56;;;;;;;6.10;2.95;;;;;;;11.83;55.65;99527.97;1088376;46;20560;-82
2023/01/07 15:55:27;;;;;;;5.25;2.88;;;;;;;11.78;55.78;99522.31;1088337;46;20034;-85
2023/01/07 15:56:52;;;;;;;5.22;3.17;;;;;;;11.79;56.26;99515.94;1087710;54;20057;-85
2023/01/07 15:58:29;;;;;;;5.63;2.80;;;;;;;11.77;55.86;99523.28;1087742;54;20415;-82
2023/01/07 15:59:40;;;;;;;5.30;2.90;;;;;;;11.78;56.26;99524.97;1087854;54;20040;-83
2023/01/07 16:00:49;;;;;;;4.40;2.25;;;;;;;11.79;56.16;99529.34;1087962;54;20074;-82
2023/01/07 16:02:30;;;;;;;4.65;2.42;;;;;;;11.82;55.91;99527.16;1088025;54;20115;-83
2023/01/07 16:03:44;;;;;;;4.47;2.42;;;;;;;11.75;55.92;99536.00;1088033;54;20023;-80
2023/01/07 16:04:52;;;;;;;4.43;2.47;;;;;;;11.67;56.08;99537.69;1087994;54;20086;-83
2023/01/07 16:05:55;;;;;;;4.70;2.17;;;;;;;11.71;56.22;99532.81;1088070;54;20042;-85
2023/01/07 16:07:02;;;;;;;4.85;2.80;;;;;;;11.53;56.64;99532.94;1088110;54;20038;-85
2023/01/07 16:08:17;;;;;;;3.85;2.30;;;;;;;11.59;56.49;99532.31;1088917;46;20065;-82
2023/01/07 16:09:22;;;;;;;4.10;2.30;;;;;;;11.60;56.58;99530.47;1092328;39;20258;-79
2023/01/07 16:10:31;;;;;;;5.35;2.45;;;;;;;11.60;56.19;99534.00;1087889;54;20037;-80
2023/01/07 16:11:32;;;;;;;3.95;2.00;;;;;;;11.62;56.42;99539.16;1088067;54;20014;-83
2023/01/07 16:12:39;;;;;;;4.40;2.10;;;;;;;11.62;56.16;99526.59;1087973;54;20019;-82
2023/01/07 16:13:56;;;;;;;4.07;2.20;;;;;;;11.56;56.41;99519.25;1088088;54;20034;-80
2023/01/07 16:14:58;;;;;;;3.38;1.77;;;;;;;11.58;56.43;99530.63;1088881;46;20026;-79
2023/01/07 16:16:05;;;;;;;4.20;2.20;;;;;;;11.62;56.29;99526.59;1087978;54;20041;-84
2023/01/07 16:17:21;;;;;;;4.13;2.20;;;;;;;11.57;56.20;99528.13;1088070;54;20027;-83
2023/01/07 16:22:13;;;;;;;4.35;2.20;;;;;;;11.43;56.94;99532.28;1087698;47;20061;-80